Petersburg, Nebraska
Current Conditions -  °F | °C
As of 8:15 AM on Thursday 18 Dec 2014 (Local Time) from KBVN Reporting Station
Overcast Overcast  
Wind Chill: 23°   Ceiling: 3500
Heat Index: 23°   Visibility: 7mi
Dew Point: 20°   Wind: 3mph
Humidity: 89%   Direction: 170°S
Pressure: 30.18"   Gusts: NA
Location:  41.85°N, 98.08°W
Report Text: KBVN 181415Z AUTO 17003KT 7SM OVC035 M05/M06 A3018 RMK AO2 T10491065
Loading
Personal Weather Stations






























Interactive Weather Map New forecast layout! Learn more

10-Day Weather Forecast

Advertisements
Track Severe Weather on mobile